ADDS METAR Data INFO
IDs: Format: Raw Decoded Include TAF

Data at: 0718 UTC 19 Oct 2017

KMGG 190713Z AUTO 00000KT 10SM CLR 08/01 A3003 RMK AO2 T00800006
KMGG 190654Z AUTO 25003KT 10SM CLR 08/01 A3003 RMK AO2 T00760006
KMGG 190633Z AUTO 25003KT 10SM CLR 07/01 A3003 RMK AO2 T00720006
KMGG 190613Z AUTO 00000KT 10SM CLR 08/01 A3002 RMK AO2 T00810006
KMGG 190554Z AUTO 25004KT 10SM CLR 08/00 A3002 RMK AO2 T00840003
KMGG 190533Z AUTO 25004KT 10SM CLR 09/00 A3002 RMK AO2 T00860002
KMGG 190513Z AUTO 25005KT 10SM CLR 09/00 A3002 RMK AO2 T00890002
KMGG 190454Z AUTO 24005KT 10SM CLR 09/00 A3002 RMK AO2 T00890003
KMGG 190433Z AUTO 24004KT 10SM CLR 08/01 A3002 RMK AO2 T00840006
KMGG 190413Z AUTO 24003KT 10SM CLR 09/01 A3002 RMK AO2 T00890005
KMGG 190354Z AUTO 24003KT 10SM CLR 09/01 A3002 RMK AO2 T00930005
KMGG 190333Z AUTO 24003KT 10SM CLR 09/00 A3001 RMK AO2 T00940002
KMGG 190313Z AUTO 25004KT 10SM CLR 10/00 A3002 RMK AO2 T01010000
KMGG 190254Z AUTO 24005KT 10SM CLR 11/00 A3001 RMK AO2 T01061002
KMGG 190233Z AUTO 24007KT 10SM CLR 11/00 A3000 RMK AO2 T01111005
KMGG 190213Z AUTO 25007KT 10SM CLR 11/M01 A3000 RMK AO2 T01131007
KMGG 190154Z AUTO 26004KT 10SM CLR 12/M01 A3000 RMK AO2 T01221013
KMGG 190133Z AUTO 25008KT 10SM CLR 13/M02 A2999 RMK AO2 T01271017
KMGG 190113Z AUTO 26009KT 10SM CLR 13/M02 A2999 RMK AO2 T01261019
KMGG 190054Z AUTO 27008G14KT 10SM CLR 13/M02 A2999 RMK AO2 T01291022
KMGG 190033Z AUTO 27007G14KT 10SM CLR 13/M02 A2998 RMK AO2 T01301025
KMGG 190014Z AUTO 28009KT 260V320 10SM CLR 13/M03 A2997 RMK AO2 T01331026
KMGG 182354Z AUTO 28009KT 10SM CLR 14/M03 A2996 RMK AO2 T01371027
KMGG 182333Z AUTO 28008G14KT 10SM CLR 14/M03 A2995 RMK AO2 T01431027
KMGG 182314Z AUTO 28009G14KT 10SM CLR 15/M03 A2994 RMK AO2 T01481033
KMGG 182254Z AUTO 28011G14KT 10SM CLR 16/M04 A2993 RMK AO2 T01581041
KMGG 182233Z AUTO 28010G15KT 10SM CLR 16/M03 A2991 RMK AO2 T01621031
KMGG 182214Z AUTO 28009G16KT 10SM CLR 17/M04 A2990 RMK AO2 T01691043
KMGG 182154Z AUTO 28013G21KT 10SM CLR 18/M04 A2990 RMK AO2 T01811038
KMGG 182133Z AUTO 29011G20KT 10SM CLR 20/M01 A2989 RMK AO2 T01951009
KMGG 182114Z AUTO 29015G23KT 10SM CLR 20/M03 A2988 RMK AO2 T01971027
KMGG 182054Z AUTO 30012G21KT 10SM CLR 20/M01 A2987 RMK AO2 T02001007
KMGG 182033Z AUTO 29014G20KT 10SM CLR 21/00 A2987 RMK AO2 T02131004
KMGG 182014Z AUTO 29010G19KT 260V320 10SM CLR 22/01 A2985 RMK AO2 T02150007
KMGG 181954Z AUTO 29012G15KT 10SM CLR 22/01 A2985 RMK AO2 T02150013
KMGG 181933Z AUTO 29012G17KT 10SM CLR 21/03 A2985 RMK AO2 T02110030
KMGG 181914Z AUTO 29012G19KT 10SM CLR 21/03 A2985 RMK AO2 T02110032
KMGG 181854Z AUTO 30016G21KT 10SM CLR 22/05 A2985 RMK AO2 T02160051
KMGG 181833Z AUTO 30011G16KT 10SM CLR 21/05 A2985 RMK AO2 T02100048
KMGG 181814Z AUTO 30006G14KT 10SM CLR 20/07 A2985 RMK AO2 T02030072
KMGG 181753Z AUTO 29009KT 10SM CLR 20/08 A2985 RMK AO2 T01990080
KMGG 181734Z AUTO 26005KT 10SM CLR 19/09 A2984 RMK AO2 T01890086
KMGG 181714Z AUTO 26005KT 10SM CLR 18/09 A2984 RMK AO2 T01760090
KMGG 181653Z AUTO 24005KT 10SM CLR 17/09 A2983 RMK AO2 T01740094
KMGG 181634Z AUTO 24007KT 190V260 10SM CLR 17/09 A2982 RMK AO2 T01700093
KMGG 181614Z AUTO 22006KT 10SM CLR 15/09 A2982 RMK AO2 T01540093
KMGG 181553Z AUTO 23009KT 200V260 10SM CLR 15/09 A2982 RMK AO2 T01500094
KMGG 181534Z AUTO 22005KT 10SM CLR 14/09 A2980 RMK AO2 T01360090
KMGG 181514Z AUTO 21008KT 10SM CLR 14/09 A2980 RMK AO2 T01370090
KMGG 181453Z AUTO 19005KT 10SM CLR 13/09 A2976 RMK AO2 T01300087
KMGG 181434Z AUTO 18006KT 10SM CLR 13/09 A2976 RMK AO2 T01250087
KMGG 181414Z AUTO 17007KT 10SM CLR 12/09 A2976 RMK AO2 T01240085
KMGG 181353Z AUTO 17008KT 150V210 10SM CLR 12/08 A2976 RMK AO2 T01190083
KMGG 181334Z AUTO 16006KT 10SM CLR 11/08 A2976 RMK AO2 T01070080
KMGG 181314Z AUTO 17005KT 10SM CLR 10/08 A2976 RMK AO2 T01020076
KMGG 181253Z AUTO 16007KT 10SM CLR 10/08 A2976 RMK AO2 T00960076
KMGG 181234Z AUTO 16004KT 10SM CLR 10/07 A2978 RMK AO2 T00950074
KMGG 181214Z AUTO 17005KT 10SM CLR 10/08 A2978 RMK AO2 T00960075
KMGG 181153Z AUTO 16005KT 10SM CLR 10/08 A2978 RMK AO2 T00950075
KMGG 181134Z AUTO 16006KT 10SM CLR 10/08 A2980 RMK AO2 T00960075
KMGG 181113Z AUTO 17005KT 10SM CLR 10/08 A2980 RMK AO2 T00960075
KMGG 181053Z AUTO 16006KT 10SM CLR 10/08 A2980 RMK AO2 T00960075
KMGG 181034Z AUTO 16005KT 10SM CLR 10/08 A2983 RMK AO2 T00970075
KMGG 181013Z AUTO 16005KT 10SM CLR 10/08 A2982 RMK AO2 T01000076
KMGG 180953Z AUTO 16004KT 10SM CLR 10/08 A2983 RMK AO2 T01020076
KMGG 180934Z AUTO 16004KT 10SM CLR 11/08 A2983 RMK AO2 T01090078
KMGG 180913Z AUTO 17004KT 10SM CLR 12/08 A2982 RMK AO2 T01150080
KMGG 180853Z AUTO 17004KT 10SM CLR 12/08 A2983 RMK AO2 T01170081
KMGG 180834Z AUTO 17004KT 10SM CLR 12/08 A2983 RMK AO2 T01180081
KMGG 180813Z AUTO 18003KT 10SM CLR 12/08 A2983 RMK AO2 T01200081
KMGG 180753Z AUTO 18004KT 10SM CLR 12/08 A2984 RMK AO2 T01220078
KMGG 180734Z AUTO 19004KT 10SM CLR 12/08 A2985 RMK AO2 T01230078
KMGG 180713Z AUTO 19005KT 10SM CLR 13/08 A2985 RMK AO2 T01250076
KMGG 180653Z AUTO 19004KT 10SM CLR 13/08 A2985 RMK AO2 T01250077
KMGG 180634Z AUTO 18004KT 10SM CLR 13/08 A2986 RMK AO2 T01280077
KMGG 180613Z AUTO 18004KT 10SM CLR 13/08 A2986 RMK AO2 T01320075
KMGG 180554Z AUTO 19005KT 10SM CLR 13/07 A2986 RMK AO2 T01330073
KMGG 180534Z AUTO 18004KT 10SM CLR 13/07 A2987 RMK AO2 T01320073
KMGG 180513Z AUTO 18003KT 10SM CLR 13/07 A2987 RMK AO2 T01310065
KMGG 180454Z AUTO 18004KT 10SM CLR 13/06 A2988 RMK AO2 T01300058
KMGG 180434Z AUTO 17003KT 10SM CLR 14/06 A2988 RMK AO2 T01350057
KMGG 180413Z AUTO 17004KT 10SM CLR 13/06 A2988 RMK AO2 T01330056
KMGG 180354Z AUTO 16003KT 10SM CLR 14/06 A2988 RMK AO2 T01360055
KMGG 180333Z AUTO 16003KT 10SM CLR 14/06 A2989 RMK AO2 T01400056
KMGG 180313Z AUTO 16005KT 10SM CLR 14/06 A2989 RMK AO2 T01370060
KMGG 180254Z AUTO 17003KT 10SM CLR 14/06 A2989 RMK AO2 T01410061
KMGG 180233Z AUTO 17003KT 10SM CLR 14/07 A2989 RMK AO2 T01380065
KMGG 180213Z AUTO 14003KT 10SM CLR 14/08 A2989 RMK AO2 T01430077
KMGG 180154Z AUTO 16003KT 10SM CLR 15/07 A2989 RMK AO2 T01510066
KMGG 180133Z AUTO 17003KT 10SM CLR 16/06 A2989 RMK AO2 T01570061
KMGG 180113Z AUTO 17003KT 10SM CLR 16/06 A2990 RMK AO2 T01600060
KMGG 180054Z AUTO 17004KT 10SM CLR 15/06 A2990 RMK AO2 T01460061
KMGG 180033Z AUTO 00000KT 10SM CLR 14/07 A2990 RMK AO2 T01380065
KMGG 180013Z AUTO 00000KT 10SM CLR 15/07 A2990 RMK AO2 T01450068
KMGG 172354Z AUTO 00000KT 10SM CLR 15/07 A2990 RMK AO2 T01540068
KMGG 172333Z AUTO 00000KT 10SM CLR 18/06 A2991 RMK AO2 T01780064
KMGG 172313Z AUTO 00000KT 10SM CLR 20/06 A2991 RMK AO2 T01990057
KMGG 172254Z AUTO 00000KT 10SM CLR 22/05 A2991 RMK AO2 T02150051
KMGG 172233Z AUTO 00000KT 10SM CLR 22/05 A2991 RMK AO2 T02230054
KMGG 172213Z AUTO 20003KT 10SM CLR 23/06 A2992 RMK AO2 T02280055
KMGG 172154Z AUTO 21003KT 10SM CLR 23/06 A2992 RMK AO2 T02300056
KMGG 172133Z AUTO 21006KT 10SM CLR 23/06 A2993 RMK AO2 T02310060
KMGG 172113Z AUTO 23006KT 10SM CLR 23/06 A2993 RMK AO2 T02300060
KMGG 172054Z AUTO 23005KT 10SM CLR 23/06 A2993 RMK AO2 T02310062
KMGG 172033Z AUTO 21006KT 10SM CLR 24/06 A2993 RMK AO2 T02350061
KMGG 172014Z AUTO 21007KT 10SM CLR 24/06 A2994 RMK AO2 T02350064
KMGG 171954Z AUTO 21005KT 10SM CLR 23/06 A2994 RMK AO2 T02320056
KMGG 171933Z AUTO 21005KT 10SM CLR 23/07 A2995 RMK AO2 T02290068